MMZH/ZIH METAR and TAF weather

Enter ICAO airport designator
Station Type Date Time Source
MMZH METAR 2022/01/18 00:40 UTC NOAA

MMZH 180040Z 27007KT 7SM SKC 28/22 A2991 RMK HZY ISOL CU


Station Type Date Time Source
MMZH Decoded METAR 2022/01/18 00:40 UTC NOAA

Ixtapa-Zihuatanejo, Mexico (MMZH) 17-36N 101-28W
Jan 17, 2022 - 07:40 PM EST / 2022.01.18 0040 UTC
Wind: from the W (270 degrees) at 8 MPH (7 KT):0
Visibility: 7 mile(s):0
Sky conditions: clear
Temperature: 82 F (28 C)
Dew Point: 71 F (22 C)
Relative Humidity: 69%
Pressure (altimeter): 29.91 in. Hg (1012 hPa)
ob: MMZH 180040Z 27007KT 7SM SKC 28/22 A2991 RMK HZY ISOL CU
cycle: 0

Station Type Date Time Source
MMZH TAF 2022/01/18 06:27 UTC NOAA

TAF MMZH 180420Z 1806/1906 27005KT P6SM SKC
FM181200 00000KT P6SM OVC020
FM181800 24010KT P6SM SCT030 SCT240
FM190300 00000KT P6SM SCT020

Example: see airport list